1923 Tropical Low NOT_NAMED (1923053S11151)


IBTrACS version v04r00. Visit IBTrACS website for data access.
Please direct all questions to the IBTrACS Q and A forum

Storm track - Intensity - Wind Radii - Intensity Data - Source Data - All data

Summary Information

Storm ID 1923053S11151
Start Feb 21 23Z
Max Intensity 984 mb (Feb 26 23Z)
End Feb 26 23Z
ATCF IDs
Track status Best track data.

Storm track plot

Map of storm track

Intensity plots

Map of storm track

Radial wind information

No radial wind information for this storm


Position and Intensity Table

BASIN ISO_TIME_________ NATURE LAT LON WMO PRES BOM PRES
degrees north degrees east mb mb
SP 1923-02-21 23:00:00 NR -11.00 150.90
SP 1923-02-22 00:00:00 NR -11.05 150.77
SP 03:00:00 NR -11.22 150.38
SP 06:00:00 NR -11.38 150.00
SP 09:00:00 NR -11.54 149.62
SP 12:00:00 NR -11.70 149.25
SP 15:00:00 NR -11.87 148.89
SP 18:00:00 NR -12.03 148.54
SP 21:00:00 NR -12.19 148.21
SP 23:00:00 NR -12.30 148.00
SP 1923-02-23 00:00:00 NR -12.35 147.90
SP 03:00:00 NR -12.52 147.61
SP 06:00:00 NR -12.70 147.36
SP 09:00:00 NR -12.88 147.16
SP 12:00:00 NR -13.09 147.03
SP 15:00:00 NR -13.32 146.99
SP 18:00:00 NR -13.58 147.05
SP 21:00:00 NR -13.88 147.22
SP 23:00:00 NR -14.10 147.40
SP 1923-02-24 00:00:00 NR -14.23 147.51
SP 03:00:00 NR -14.64 147.92
SP 06:00:00 NR -15.05 148.43
SP 09:00:00 NR -15.40 149.00
SP 12:00:00 NR -15.60 149.51
SP 15:00:00 NR -15.73 150.07
SP 18:00:00 NR -15.83 150.70
SP 21:00:00 NR -15.97 151.44
SP 23:00:00 NR -16.10 152.00
SP 1923-02-25 00:00:00 NR -16.17 152.31
SP 03:00:00 NR -16.43 153.32
SP 05:00:00 NR -16.70 154.00
SP 06:00:00 NR -16.87 154.34
SP 09:00:00 NR -17.50 155.32
SP 11:00:00 NR -18.00 155.90
SP 12:00:00 NR -18.25 156.17
SP 15:00:00 NR -19.07 156.86
SP 18:00:00 NR -20.00 157.40
SP 21:00:00 NR -21.01 157.85
SP 23:00:00 NR -21.70 158.10
SP 1923-02-26 00:00:00 NR -22.02 158.21
SP 03:00:00 NR -22.96 158.49
SP 06:00:00 NR -23.84 158.73
SP 09:00:00 NR -24.68 158.99
SP 12:00:00 NR -25.48 159.31
SP 14:00:00 NR -26.00 159.60
SP 15:00:00 NR -26.25 159.77
SP 18:00:00 NR -27.00 160.38
SP 21:00:00 NR -27.72 161.09
SP 23:00:00 NR -28.20 161.60 984 984

Source Information

Agency Information
USA
TOKYO
CMA
HKO
NEWDELHI
REUNION
BOM IDCKMSTM0S.csv:Line=462:unnamed
NADI
WELLINGTON
DS824
TD9636
TD9635
NEUMANN
MLC

All available IBTrACS Data

SEASON BASIN SUBBASIN ISO_TIME_________ NATURE LAT LON WMO PRES WMO AGENCY DIST2LAND LANDFALL IFLAG USA SSHS BOM LAT BOM LON BOM PRES BOM PRES_METHOD STORM SPEED STORM DIR
Year degrees north degrees east mb km km 1 degrees north degrees east mb kts degrees
1923 SP EA 1923-02-21 23:00:00 NR -11.00 150.90 bom 49 46 ______O_______ -1 -11.00 150.90 8 247
1923 SP EA 1923-02-22 00:00:00 NR -11.05 150.77 57 49 ______P_______ -1 -11.05 150.77 8 247
1923 SP EA 03:00:00 NR -11.22 150.38 56 56 ______P_______ -1 -11.22 150.38 8 247
1923 SP EA 06:00:00 NR -11.38 150.00 81 81 ______P_______ -1 -11.38 150.00 8 247
1923 SP EA 09:00:00 NR -11.54 149.62 105 105 ______P_______ -1 -11.54 149.62 8 246
1923 SP EA 12:00:00 NR -11.70 149.25 139 139 ______P_______ -1 -11.70 149.25 8 246
1923 SP EA 15:00:00 NR -11.87 148.89 179 179 ______P_______ -1 -11.87 148.89 8 245
1923 SP EA 18:00:00 NR -12.03 148.54 198 198 ______P_______ -1 -12.03 148.54 7 244
1923 SP EA 21:00:00 NR -12.19 148.21 225 224 ______P_______ -1 -12.19 148.21 7 243
1923 SP EA 23:00:00 NR -12.30 148.00 bom 235 235 ______O_______ -1 -12.30 148.00 7 242
1923 SP EA 1923-02-23 00:00:00 NR -12.35 147.90 246 246 ______P_______ -1 -12.35 147.90 7 240
1923 SP EA 03:00:00 NR -12.52 147.61 261 261 ______P_______ -1 -12.52 147.61 6 237
1923 SP EA 06:00:00 NR -12.70 147.36 287 287 ______P_______ -1 -12.70 147.36 6 230
1923 SP EA 09:00:00 NR -12.88 147.16 311 279 ______P_______ -1 -12.88 147.16 5 219
1923 SP EA 12:00:00 NR -13.09 147.03 279 264 ______P_______ -1 -13.09 147.03 5 201
1923 SP EA 15:00:00 NR -13.32 146.99 264 241 ______P_______ -1 -13.32 146.99 5 0
1923 SP EA 18:00:00 NR -13.58 147.05 241 235 ______P_______ -1 -13.58 147.05 6 159
1923 SP EA 21:00:00 NR -13.88 147.22 238 238 ______P_______ -1 -13.88 147.22 7 146
1923 SP EA 23:00:00 NR -14.10 147.40 bom 247 247 ______O_______ -1 -14.10 147.40 9 141
1923 SP EA 1923-02-24 00:00:00 NR -14.23 147.51 253 249 ______P_______ -1 -14.23 147.51 11 137
1923 SP EA 03:00:00 NR -14.64 147.92 279 276 ______P_______ -1 -14.64 147.92 12 133
1923 SP EA 06:00:00 NR -15.05 148.43 323 323 ______P_______ -1 -15.05 148.43 13 126
1923 SP EA 09:00:00 NR -15.40 149.00 bom 376 376 ______O_______ -1 -15.40 149.00 12 118
1923 SP EA 12:00:00 NR -15.60 149.51 414 414 ______P_______ -1 -15.60 149.51 11 108
1923 SP EA 15:00:00 NR -15.73 150.07 466 466 ______P_______ -1 -15.73 150.07 12 102
1923 SP EA 18:00:00 NR -15.83 150.70 521 521 ______P_______ -1 -15.83 150.70 13 100
1923 SP EA 21:00:00 NR -15.97 151.44 553 553 ______P_______ -1 -15.97 151.44 15 102
1923 SP EA 23:00:00 NR -16.10 152.00 bom 578 578 ______O_______ -1 -16.10 152.00 17 103
1923 SP EA 1923-02-25 00:00:00 NR -16.17 152.31 589 589 ______P_______ -1 -16.17 152.31 20 105
1923 SP EA 03:00:00 NR -16.43 153.32 644 644 ______P_______ -1 -16.43 153.32 20 108
1923 SP EA 05:00:00 NR -16.70 154.00 bom 680 680 ______O_______ -1 -16.70 154.00 21 114
1923 SP EA 06:00:00 NR -16.87 154.34 693 693 ______P_______ -1 -16.87 154.34 22 122
1923 SP EA 09:00:00 NR -17.50 155.32 728 726 ______P_______ -1 -17.50 155.32 23 127
1923 SP EA 11:00:00 NR -18.00 155.90 bom 732 732 ______O_______ -1 -18.00 155.90 22 133
1923 SP EA 12:00:00 NR -18.25 156.17 740 731 ______P_______ -1 -18.25 156.17 21 140
1923 SP EA 15:00:00 NR -19.07 156.86 737 684 ______P_______ -1 -19.07 156.86 21 146
1923 SP EA 18:00:00 NR -20.00 157.40 bom 682 626 ______O_______ -1 -20.00 157.40 22 154
1923 SP EA 21:00:00 NR -21.01 157.85 634 605 ______P_______ -1 -21.01 157.85 22 159
1923 SP EA 23:00:00 NR -21.70 158.10 bom 600 589 ______O_______ -1 -21.70 158.10 21 162
1923 SP EA 1923-02-26 00:00:00 NR -22.02 158.21 589 564 ______P_______ -1 -22.02 158.21 20 164
1923 SP EA 03:00:00 NR -22.96 158.49 563 552 ______P_______ -1 -22.96 158.49 19 165
1923 SP EA 06:00:00 NR -23.84 158.73 552 550 ______P_______ -1 -23.84 158.73 18 165
1923 SP EA 09:00:00 NR -24.68 158.99 565 564 ______P_______ -1 -24.68 158.99 17 162
1923 SP EA 12:00:00 NR -25.48 159.31 595 595 ______P_______ -1 -25.48 159.31 17 157
1923 SP EA 14:00:00 NR -26.00 159.60 bom 631 631 ______O_______ -1 -26.00 159.60 18 152
1923 SP EA 15:00:00 NR -26.25 159.77 647 647 ______P_______ -1 -26.25 159.77 18 145
1923 SP MM 18:00:00 NR -27.00 160.38 682 682 ______P_______ -1 -27.00 160.38 19 141
1923 SP MM 21:00:00 NR -27.72 161.09 737 736 ______P_______ -1 -27.72 161.09 19 138
1923 SP MM 23:00:00 NR -28.20 161.60 984 bom 782 ______O_______ -1 -28.20 161.60 984 4 20 137